PAVD METAR and TAF weather

Enter ICAO airport designator
Station Type Date Time Source
PAVD METAR 2019/12/07 07:05 UTC NOAA

PAVD 070705Z AUTO 11003KT 10SM OVC048 M04/M06 A2984 RMK AO2 FZRANO


Station Type Date Time Source
PAVD Decoded METAR 2019/12/07 07:05 UTC NOAA

Valdez 2, AK, United States (PAVD) 61-08N 146-16W
Dec 07, 2019 - 02:05 AM EST / 2019.12.07 0705 UTC
Wind: from the ESE (110 degrees) at 3 MPH (3 KT):0
Visibility: 10 mile(s):0
Sky conditions: overcast
Temperature: 24 F (-4 C)
Dew Point: 21 F (-6 C)
Relative Humidity: 85%
Pressure (altimeter): 29.84 in. Hg (1010 hPa)
ob: PAVD 070705Z AUTO 11003KT 10SM OVC048 M04/M06 A2984 RMK AO2 FZRANO
cycle: 7

Station Type Date Time Source
PAVD TAF 2019/12/07 06:42 UTC NOAA

TAF PAVD 070539Z 0706/0806 VRB03KT 6SM -SN BKN015 OVC040
TEMPO 0706/0710 2SM -SN BR BKN015
FM071200 00000KT 3SM -SN BKN015 OVC030
FM072200 VRB03KT 3SM -RASN BR OVC015
AMD LTD TO CLD VIS AND WIND

Example: see airport list